sensor_id;sensor_type;location;lat;lon;timestamp;P1;durP1;ratioP1;P2;durP2;ratioP2
23228;SDS011;11783;50.350;6.576;2023-03-14T00:00:31;10.32;;;1.90;;
23228;SDS011;11783;50.350;6.576;2023-03-14T00:02:56;10.23;;;1.90;;
23228;SDS011;11783;50.350;6.576;2023-03-14T00:05:22;7.45;;;2.10;;
23228;SDS011;11783;50.350;6.576;2023-03-14T00:07:47;8.43;;;1.92;;
23228;SDS011;11783;50.350;6.576;2023-03-14T00:10:13;12.57;;;2.20;;
23228;SDS011;11783;50.350;6.576;2023-03-14T00:12:43;9.40;;;1.92;;
23228;SDS011;11783;50.350;6.576;2023-03-14T00:15:09;12.35;;;2.65;;
23228;SDS011;11783;50.350;6.576;2023-03-14T00:17:36;12.10;;;2.28;;
23228;SDS011;11783;50.350;6.576;2023-03-14T00:20:01;10.48;;;2.05;;
23228;SDS011;11783;50.350;6.576;2023-03-14T00:22:39;11.38;;;2.20;;
23228;SDS011;11783;50.350;6.576;2023-03-14T00:25:07;10.18;;;2.30;;
23228;SDS011;11783;50.350;6.576;2023-03-14T00:27:33;8.13;;;1.88;;
23228;SDS011;11783;50.350;6.576;2023-03-14T00:29:59;12.38;;;2.08;;
23228;SDS011;11783;50.350;6.576;2023-03-14T00:32:25;7.85;;;1.70;;
23228;SDS011;11783;50.350;6.576;2023-03-14T00:34:50;11.43;;;2.35;;
23228;SDS011;11783;50.350;6.576;2023-03-14T00:37:16;9.57;;;1.90;;
23228;SDS011;11783;50.350;6.576;2023-03-14T00:39:41;9.90;;;1.90;;
23228;SDS011;11783;50.350;6.576;2023-03-14T00:42:07;11.10;;;2.40;;
23228;SDS011;11783;50.350;6.576;2023-03-14T00:44:32;10.90;;;2.30;;
23228;SDS011;11783;50.350;6.576;2023-03-14T00:46:58;9.18;;;1.92;;
23228;SDS011;11783;50.350;6.576;2023-03-14T00:49:23;9.27;;;2.10;;
23228;SDS011;11783;50.350;6.576;2023-03-14T00:51:48;8.88;;;2.13;;
23228;SDS011;11783;50.350;6.576;2023-03-14T00:54:14;6.40;;;1.70;;
23228;SDS011;11783;50.350;6.576;2023-03-14T00:56:39;9.85;;;1.98;;
23228;SDS011;11783;50.350;6.576;2023-03-14T00:59:05;12.00;;;2.00;;
23228;SDS011;11783;50.350;6.576;2023-03-14T01:01:30;7.38;;;1.98;;
23228;SDS011;11783;50.350;6.576;2023-03-14T01:03:55;9.30;;;1.42;;
23228;SDS011;11783;50.350;6.576;2023-03-14T01:06:25;10.85;;;2.47;;
23228;SDS011;11783;50.350;6.576;2023-03-14T01:08:52;8.35;;;1.80;;
23228;SDS011;11783;50.350;6.576;2023-03-14T01:11:23;9.25;;;1.52;;
23228;SDS011;11783;50.350;6.576;2023-03-14T01:13:52;9.52;;;1.52;;
23228;SDS011;11783;50.350;6.576;2023-03-14T01:16:19;7.32;;;1.60;;
23228;SDS011;11783;50.350;6.576;2023-03-14T01:18:45;8.82;;;1.73;;
23228;SDS011;11783;50.350;6.576;2023-03-14T01:23:47;9.68;;;2.10;;
23228;SDS011;11783;50.350;6.576;2023-03-14T01:26:15;7.97;;;2.10;;
23228;SDS011;11783;50.350;6.576;2023-03-14T01:28:43;7.68;;;1.70;;
23228;SDS011;11783;50.350;6.576;2023-03-14T01:31:11;11.48;;;2.03;;
23228;SDS011;11783;50.350;6.576;2023-03-14T01:33:38;12.70;;;2.40;;
23228;SDS011;11783;50.350;6.576;2023-03-14T01:36:05;10.55;;;1.88;;
23228;SDS011;11783;50.350;6.576;2023-03-14T01:38:32;11.00;;;2.10;;
23228;SDS011;11783;50.350;6.576;2023-03-14T01:40:58;9.98;;;2.05;;
23228;SDS011;11783;50.350;6.576;2023-03-14T01:43:23;8.35;;;1.83;;
23228;SDS011;11783;50.350;6.576;2023-03-14T01:48:27;8.90;;;2.00;;
23228;SDS011;11783;50.350;6.576;2023-03-14T01:50:56;10.75;;;2.05;;
23228;SDS011;11783;50.350;6.576;2023-03-14T01:53:23;16.90;;;2.30;;
23228;SDS011;11783;50.350;6.576;2023-03-14T01:55:49;12.65;;;2.25;;
23228;SDS011;11783;50.350;6.576;2023-03-14T01:58:17;12.18;;;2.28;;
23228;SDS011;11783;50.350;6.576;2023-03-14T02:00:45;18.13;;;3.60;;
23228;SDS011;11783;50.350;6.576;2023-03-14T02:03:11;11.07;;;2.28;;
23228;SDS011;11783;50.350;6.576;2023-03-14T02:05:41;11.40;;;2.50;;
23228;SDS011;11783;50.350;6.576;2023-03-14T02:08:08;11.82;;;2.05;;
23228;SDS011;11783;50.350;6.576;2023-03-14T02:10:40;13.55;;;2.30;;
23228;SDS011;11783;50.350;6.576;2023-03-14T02:13:08;12.20;;;1.63;;
23228;SDS011;11783;50.350;6.576;2023-03-14T02:15:34;15.32;;;1.98;;
23228;SDS011;11783;50.350;6.576;2023-03-14T02:18:00;11.98;;;2.00;;
23228;SDS011;11783;50.350;6.576;2023-03-14T02:23:11;10.30;;;1.98;;
23228;SDS011;11783;50.350;6.576;2023-03-14T02:28:36;11.98;;;2.50;;
23228;SDS011;11783;50.350;6.576;2023-03-14T02:31:01;12.63;;;2.38;;
23228;SDS011;11783;50.350;6.576;2023-03-14T02:33:27;11.63;;;2.85;;
23228;SDS011;11783;50.350;6.576;2023-03-14T02:35:53;10.20;;;2.33;;
23228;SDS011;11783;50.350;6.576;2023-03-14T02:38:41;13.95;;;2.55;;
23228;SDS011;11783;50.350;6.576;2023-03-14T02:41:14;10.40;;;2.00;;
23228;SDS011;11783;50.350;6.576;2023-03-14T02:43:40;10.63;;;2.10;;
23228;SDS011;11783;50.350;6.576;2023-03-14T02:46:05;7.40;;;1.70;;
23228;SDS011;11783;50.350;6.576;2023-03-14T02:48:35;11.20;;;2.10;;
23228;SDS011;11783;50.350;6.576;2023-03-14T02:51:11;10.02;;;1.92;;
23228;SDS011;11783;50.350;6.576;2023-03-14T02:53:38;10.20;;;1.73;;
23228;SDS011;11783;50.350;6.576;2023-03-14T02:56:06;13.40;;;2.08;;
23228;SDS011;11783;50.350;6.576;2023-03-14T02:58:32;13.57;;;2.83;;
23228;SDS011;11783;50.350;6.576;2023-03-14T03:00:58;9.95;;;2.15;;
23228;SDS011;11783;50.350;6.576;2023-03-14T03:03:23;8.98;;;1.85;;
23228;SDS011;11783;50.350;6.576;2023-03-14T03:05:49;10.50;;;2.08;;
23228;SDS011;11783;50.350;6.576;2023-03-14T03:08:16;10.10;;;2.65;;
23228;SDS011;11783;50.350;6.576;2023-03-14T03:10:42;10.05;;;1.98;;
23228;SDS011;11783;50.350;6.576;2023-03-14T03:13:07;9.60;;;1.70;;
23228;SDS011;11783;50.350;6.576;2023-03-14T03:15:32;8.43;;;1.63;;
23228;SDS011;11783;50.350;6.576;2023-03-14T03:17:58;7.03;;;1.33;;
23228;SDS011;11783;50.350;6.576;2023-03-14T03:20:23;6.38;;;1.88;;
23228;SDS011;11783;50.350;6.576;2023-03-14T03:22:49;6.63;;;1.40;;
23228;SDS011;11783;50.350;6.576;2023-03-14T03:25:14;5.22;;;1.23;;
23228;SDS011;11783;50.350;6.576;2023-03-14T03:27:40;6.75;;;1.58;;
23228;SDS011;11783;50.350;6.576;2023-03-14T03:30:06;5.85;;;1.30;;
23228;SDS011;11783;50.350;6.576;2023-03-14T03:32:32;6.90;;;1.50;;
23228;SDS011;11783;50.350;6.576;2023-03-14T03:34:58;5.93;;;1.30;;
23228;SDS011;11783;50.350;6.576;2023-03-14T03:37:23;10.85;;;2.05;;
23228;SDS011;11783;50.350;6.576;2023-03-14T03:39:52;5.40;;;1.17;;
23228;SDS011;11783;50.350;6.576;2023-03-14T03:42:18;4.68;;;1.05;;
23228;SDS011;11783;50.350;6.576;2023-03-14T03:44:44;5.00;;;1.60;;
23228;SDS011;11783;50.350;6.576;2023-03-14T03:47:09;3.25;;;0.77;;
23228;SDS011;11783;50.350;6.576;2023-03-14T03:49:35;4.00;;;0.85;;
23228;SDS011;11783;50.350;6.576;2023-03-14T03:52:00;3.85;;;0.80;;
23228;SDS011;11783;50.350;6.576;2023-03-14T03:54:26;2.28;;;0.70;;
23228;SDS011;11783;50.350;6.576;2023-03-14T03:56:51;2.25;;;0.80;;
23228;SDS011;11783;50.350;6.576;2023-03-14T03:59:17;1.83;;;0.70;;
23228;SDS011;11783;50.350;6.576;2023-03-14T04:01:43;2.55;;;0.70;;
23228;SDS011;11783;50.350;6.576;2023-03-14T04:04:08;1.20;;;0.50;;
23228;SDS011;11783;50.350;6.576;2023-03-14T04:06:34;2.78;;;0.60;;
23228;SDS011;11783;50.350;6.576;2023-03-14T04:08:59;1.90;;;0.88;;
23228;SDS011;11783;50.350;6.576;2023-03-14T04:11:25;2.05;;;0.60;;
23228;SDS011;11783;50.350;6.576;2023-03-14T04:13:50;1.35;;;0.63;;
23228;SDS011;11783;50.350;6.576;2023-03-14T04:16:20;1.13;;;0.40;;
23228;SDS011;11783;50.350;6.576;2023-03-14T04:21:12;2.20;;;0.43;;
23228;SDS011;11783;50.350;6.576;2023-03-14T04:23:37;1.38;;;0.40;;
23228;SDS011;11783;50.350;6.576;2023-03-14T04:26:03;2.10;;;0.52;;
23228;SDS011;11783;50.350;6.576;2023-03-14T04:28:28;2.35;;;0.47;;
23228;SDS011;11783;50.350;6.576;2023-03-14T04:30:54;2.28;;;0.40;;
23228;SDS011;11783;50.350;6.576;2023-03-14T04:33:19;1.08;;;0.45;;
23228;SDS011;11783;50.350;6.576;2023-03-14T04:35:45;0.68;;;0.40;;
23228;SDS011;11783;50.350;6.576;2023-03-14T04:38:11;3.25;;;0.30;;
23228;SDS011;11783;50.350;6.576;2023-03-14T04:40:38;3.45;;;0.50;;
23228;SDS011;11783;50.350;6.576;2023-03-14T04:43:04;1.58;;;0.52;;
23228;SDS011;11783;50.350;6.576;2023-03-14T04:45:30;2.03;;;0.50;;
23228;SDS011;11783;50.350;6.576;2023-03-14T04:47:55;1.88;;;0.40;;
23228;SDS011;11783;50.350;6.576;2023-03-14T04:50:21;0.93;;;0.50;;
23228;SDS011;11783;50.350;6.576;2023-03-14T04:52:46;0.88;;;0.43;;
23228;SDS011;11783;50.350;6.576;2023-03-14T04:55:11;3.15;;;0.50;;
23228;SDS011;11783;50.350;6.576;2023-03-14T04:57:37;0.70;;;0.50;;
23228;SDS011;11783;50.350;6.576;2023-03-14T05:00:03;1.70;;;0.63;;
23228;SDS011;11783;50.350;6.576;2023-03-14T05:02:32;2.13;;;0.60;;
23228;SDS011;11783;50.350;6.576;2023-03-14T05:04:58;1.38;;;0.60;;
23228;SDS011;11783;50.350;6.576;2023-03-14T05:07:23;1.05;;;0.40;;
23228;SDS011;11783;50.350;6.576;2023-03-14T05:09:48;1.45;;;0.50;;
23228;SDS011;11783;50.350;6.576;2023-03-14T05:12:14;0.60;;;0.40;;
23228;SDS011;11783;50.350;6.576;2023-03-14T05:14:39;0.40;;;0.40;;
23228;SDS011;11783;50.350;6.576;2023-03-14T05:17:05;0.30;;;0.30;;
23228;SDS011;11783;50.350;6.576;2023-03-14T05:19:30;0.85;;;0.40;;
23228;SDS011;11783;50.350;6.576;2023-03-14T05:21:56;0.95;;;0.50;;
23228;SDS011;11783;50.350;6.576;2023-03-14T05:24:21;0.43;;;0.30;;
23228;SDS011;11783;50.350;6.576;2023-03-14T05:26:47;0.98;;;0.45;;
23228;SDS011;11783;50.350;6.576;2023-03-14T05:29:12;1.05;;;0.30;;
23228;SDS011;11783;50.350;6.576;2023-03-14T05:31:37;0.93;;;0.40;;
23228;SDS011;11783;50.350;6.576;2023-03-14T05:34:03;1.55;;;0.30;;
23228;SDS011;11783;50.350;6.576;2023-03-14T05:36:28;0.80;;;0.30;;
23228;SDS011;11783;50.350;6.576;2023-03-14T05:38:54;0.70;;;0.30;;
23228;SDS011;11783;50.350;6.576;2023-03-14T05:41:19;0.60;;;0.30;;
23228;SDS011;11783;50.350;6.576;2023-03-14T05:43:44;1.27;;;0.30;;
23228;SDS011;11783;50.350;6.576;2023-03-14T05:46:09;1.15;;;0.40;;
23228;SDS011;11783;50.350;6.576;2023-03-14T05:48:35;0.73;;;0.30;;
23228;SDS011;11783;50.350;6.576;2023-03-14T05:51:00;0.85;;;0.25;;
23228;SDS011;11783;50.350;6.576;2023-03-14T05:53:26;0.70;;;0.25;;
23228;SDS011;11783;50.350;6.576;2023-03-14T05:55:55;0.70;;;0.30;;
23228;SDS011;11783;50.350;6.576;2023-03-14T05:58:21;0.20;;;0.20;;
23228;SDS011;11783;50.350;6.576;2023-03-14T06:00:47;1.13;;;0.40;;
23228;SDS011;11783;50.350;6.576;2023-03-14T06:03:13;0.60;;;0.40;;
23228;SDS011;11783;50.350;6.576;2023-03-14T06:05:38;0.30;;;0.20;;
23228;SDS011;11783;50.350;6.576;2023-03-14T06:08:03;0.22;;;0.22;;
23228;SDS011;11783;50.350;6.576;2023-03-14T06:10:29;0.50;;;0.30;;
23228;SDS011;11783;50.350;6.576;2023-03-14T06:12:55;0.52;;;0.30;;
23228;SDS011;11783;50.350;6.576;2023-03-14T06:15:20;0.43;;;0.30;;
23228;SDS011;11783;50.350;6.576;2023-03-14T06:17:46;2.15;;;0.57;;
23228;SDS011;11783;50.350;6.576;2023-03-14T06:20:11;0.80;;;0.30;;
23228;SDS011;11783;50.350;6.576;2023-03-14T06:22:37;0.25;;;0.22;;
23228;SDS011;11783;50.350;6.576;2023-03-14T06:25:03;0.68;;;0.30;;
23228;SDS011;11783;50.350;6.576;2023-03-14T06:27:29;0.50;;;0.30;;
23228;SDS011;11783;50.350;6.576;2023-03-14T06:29:55;0.40;;;0.30;;
23228;SDS011;11783;50.350;6.576;2023-03-14T06:32:21;0.28;;;0.20;;
23228;SDS011;11783;50.350;6.576;2023-03-14T06:34:46;0.82;;;0.25;;
23228;SDS011;11783;50.350;6.576;2023-03-14T06:37:11;0.55;;;0.30;;
23228;SDS011;11783;50.350;6.576;2023-03-14T06:39:37;0.28;;;0.22;;
23228;SDS011;11783;50.350;6.576;2023-03-14T06:42:03;0.30;;;0.20;;
23228;SDS011;11783;50.350;6.576;2023-03-14T06:44:28;0.45;;;0.30;;
23228;SDS011;11783;50.350;6.576;2023-03-14T06:46:54;0.73;;;0.40;;
23228;SDS011;11783;50.350;6.576;2023-03-14T06:49:19;0.35;;;0.28;;
23228;SDS011;11783;50.350;6.576;2023-03-14T06:51:44;0.20;;;0.20;;
23228;SDS011;11783;50.350;6.576;2023-03-14T06:54:10;0.40;;;0.25;;
23228;SDS011;11783;50.350;6.576;2023-03-14T06:56:35;1.20;;;0.40;;
23228;SDS011;11783;50.350;6.576;2023-03-14T06:59:00;0.20;;;0.20;;
23228;SDS011;11783;50.350;6.576;2023-03-14T07:01:27;0.28;;;0.20;;
23228;SDS011;11783;50.350;6.576;2023-03-14T07:03:54;1.23;;;0.30;;
23228;SDS011;11783;50.350;6.576;2023-03-14T07:06:20;0.30;;;0.20;;
23228;SDS011;11783;50.350;6.576;2023-03-14T07:08:46;0.60;;;0.30;;
23228;SDS011;11783;50.350;6.576;2023-03-14T07:11:12;0.30;;;0.20;;
23228;SDS011;11783;50.350;6.576;2023-03-14T07:13:38;0.30;;;0.30;;
23228;SDS011;11783;50.350;6.576;2023-03-14T07:16:04;0.45;;;0.30;;
23228;SDS011;11783;50.350;6.576;2023-03-14T07:18:30;1.05;;;0.50;;
23228;SDS011;11783;50.350;6.576;2023-03-14T07:20:55;0.88;;;0.30;;
23228;SDS011;11783;50.350;6.576;2023-03-14T07:23:21;1.25;;;0.50;;
23228;SDS011;11783;50.350;6.576;2023-03-14T07:25:46;1.73;;;0.70;;
23228;SDS011;11783;50.350;6.576;2023-03-14T07:28:12;1.50;;;0.57;;
23228;SDS011;11783;50.350;6.576;2023-03-14T07:30:37;0.77;;;0.50;;
23228;SDS011;11783;50.350;6.576;2023-03-14T07:33:02;1.85;;;0.30;;
23228;SDS011;11783;50.350;6.576;2023-03-14T07:35:28;0.50;;;0.30;;
23228;SDS011;11783;50.350;6.576;2023-03-14T07:37:53;1.40;;;0.30;;
23228;SDS011;11783;50.350;6.576;2023-03-14T07:40:19;0.20;;;0.20;;
23228;SDS011;11783;50.350;6.576;2023-03-14T07:42:44;0.30;;;0.30;;
23228;SDS011;11783;50.350;6.576;2023-03-14T07:45:10;0.20;;;0.20;;
23228;SDS011;11783;50.350;6.576;2023-03-14T07:47:35;0.57;;;0.30;;
23228;SDS011;11783;50.350;6.576;2023-03-14T07:50:02;0.30;;;0.20;;
23228;SDS011;11783;50.350;6.576;2023-03-14T07:52:28;0.98;;;0.40;;
23228;SDS011;11783;50.350;6.576;2023-03-14T07:54:54;0.55;;;0.30;;
23228;SDS011;11783;50.350;6.576;2023-03-14T07:57:19;0.45;;;0.20;;
23228;SDS011;11783;50.350;6.576;2023-03-14T07:59:44;0.73;;;0.30;;
23228;SDS011;11783;50.350;6.576;2023-03-14T08:02:10;0.38;;;0.20;;
23228;SDS011;11783;50.350;6.576;2023-03-14T08:04:37;0.43;;;0.35;;
23228;SDS011;11783;50.350;6.576;2023-03-14T08:07:03;0.63;;;0.30;;
23228;SDS011;11783;50.350;6.576;2023-03-14T08:09:29;1.10;;;0.40;;
23228;SDS011;11783;50.350;6.576;2023-03-14T08:11:54;0.82;;;0.20;;
23228;SDS011;11783;50.350;6.576;2023-03-14T08:14:20;0.20;;;0.20;;
23228;SDS011;11783;50.350;6.576;2023-03-14T08:16:45;0.17;;;0.17;;
23228;SDS011;11783;50.350;6.576;2023-03-14T08:19:10;0.40;;;0.28;;
23228;SDS011;11783;50.350;6.576;2023-03-14T08:21:36;0.28;;;0.20;;
23228;SDS011;11783;50.350;6.576;2023-03-14T08:24:01;1.75;;;0.40;;
23228;SDS011;11783;50.350;6.576;2023-03-14T08:26:27;0.50;;;0.30;;
23228;SDS011;11783;50.350;6.576;2023-03-14T08:28:52;0.90;;;0.30;;
23228;SDS011;11783;50.350;6.576;2023-03-14T08:31:17;0.30;;;0.30;;
23228;SDS011;11783;50.350;6.576;2023-03-14T08:33:43;0.32;;;0.30;;
23228;SDS011;11783;50.350;6.576;2023-03-14T08:36:08;0.30;;;0.28;;
23228;SDS011;11783;50.350;6.576;2023-03-14T08:38:34;1.42;;;0.30;;
23228;SDS011;11783;50.350;6.576;2023-03-14T08:41:00;0.35;;;0.22;;
23228;SDS011;11783;50.350;6.576;2023-03-14T08:43:27;0.20;;;0.20;;
23228;SDS011;11783;50.350;6.576;2023-03-14T08:45:53;0.40;;;0.25;;
23228;SDS011;11783;50.350;6.576;2023-03-14T08:48:19;0.38;;;0.30;;
23228;SDS011;11783;50.350;6.576;2023-03-14T08:50:44;0.85;;;0.30;;
23228;SDS011;11783;50.350;6.576;2023-03-14T08:53:10;1.25;;;0.30;;
23228;SDS011;11783;50.350;6.576;2023-03-14T08:55:36;3.00;;;0.40;;
23228;SDS011;11783;50.350;6.576;2023-03-14T08:58:01;1.88;;;0.35;;
23228;SDS011;11783;50.350;6.576;2023-03-14T09:00:27;1.10;;;0.30;;
23228;SDS011;11783;50.350;6.576;2023-03-14T09:02:52;0.32;;;0.20;;
23228;SDS011;11783;50.350;6.576;2023-03-14T09:05:17;0.35;;;0.25;;
23228;SDS011;11783;50.350;6.576;2023-03-14T09:07:43;0.57;;;0.30;;
23228;SDS011;11783;50.350;6.576;2023-03-14T09:10:08;1.17;;;0.30;;
23228;SDS011;11783;50.350;6.576;2023-03-14T09:12:34;0.40;;;0.20;;
23228;SDS011;11783;50.350;6.576;2023-03-14T09:15:00;0.10;;;0.10;;
23228;SDS011;11783;50.350;6.576;2023-03-14T09:17:25;1.52;;;0.30;;
23228;SDS011;11783;50.350;6.576;2023-03-14T09:19:51;0.22;;;0.20;;
23228;SDS011;11783;50.350;6.576;2023-03-14T09:22:16;1.30;;;0.20;;
23228;SDS011;11783;50.350;6.576;2023-03-14T09:24:42;0.52;;;0.30;;
23228;SDS011;11783;50.350;6.576;2023-03-14T09:27:07;0.47;;;0.30;;
23228;SDS011;11783;50.350;6.576;2023-03-14T09:29:33;1.05;;;0.20;;
23228;SDS011;11783;50.350;6.576;2023-03-14T09:31:59;0.70;;;0.20;;
23228;SDS011;11783;50.350;6.576;2023-03-14T09:34:24;0.52;;;0.20;;
23228;SDS011;11783;50.350;6.576;2023-03-14T09:36:50;1.08;;;0.30;;
23228;SDS011;11783;50.350;6.576;2023-03-14T09:39:15;0.40;;;0.30;;
23228;SDS011;11783;50.350;6.576;2023-03-14T09:41:49;0.60;;;0.30;;
23228;SDS011;11783;50.350;6.576;2023-03-14T09:44:21;0.50;;;0.40;;
23228;SDS011;11783;50.350;6.576;2023-03-14T09:46:47;0.63;;;0.22;;
23228;SDS011;11783;50.350;6.576;2023-03-14T09:49:19;1.90;;;0.30;;
23228;SDS011;11783;50.350;6.576;2023-03-14T09:51:56;1.05;;;0.30;;
23228;SDS011;11783;50.350;6.576;2023-03-14T09:54:38;0.30;;;0.30;;
23228;SDS011;11783;50.350;6.576;2023-03-14T09:57:12;5.15;;;0.50;;
23228;SDS011;11783;50.350;6.576;2023-03-14T09:59:41;0.82;;;0.40;;
23228;SDS011;11783;50.350;6.576;2023-03-14T10:02:19;1.98;;;0.40;;
23228;SDS011;11783;50.350;6.576;2023-03-14T10:04:46;0.57;;;0.30;;
23228;SDS011;11783;50.350;6.576;2023-03-14T10:07:14;1.05;;;0.40;;
23228;SDS011;11783;50.350;6.576;2023-03-14T10:09:44;0.38;;;0.30;;
23228;SDS011;11783;50.350;6.576;2023-03-14T10:12:12;0.73;;;0.47;;
23228;SDS011;11783;50.350;6.576;2023-03-14T10:14:44;1.98;;;0.80;;
23228;SDS011;11783;50.350;6.576;2023-03-14T10:17:14;1.33;;;0.70;;
23228;SDS011;11783;50.350;6.576;2023-03-14T10:19:57;2.05;;;0.60;;
23228;SDS011;11783;50.350;6.576;2023-03-14T10:22:24;2.20;;;0.70;;
23228;SDS011;11783;50.350;6.576;2023-03-14T10:24:57;0.68;;;0.43;;
23228;SDS011;11783;50.350;6.576;2023-03-14T10:27:33;2.42;;;1.00;;
23228;SDS011;11783;50.350;6.576;2023-03-14T10:30:05;1.20;;;0.60;;
23228;SDS011;11783;50.350;6.576;2023-03-14T10:32:33;0.82;;;0.60;;
23228;SDS011;11783;50.350;6.576;2023-03-14T10:38:01;0.70;;;0.40;;
23228;SDS011;11783;50.350;6.576;2023-03-14T10:40:30;1.40;;;0.68;;
23228;SDS011;11783;50.350;6.576;2023-03-14T10:42:58;0.77;;;0.60;;
23228;SDS011;11783;50.350;6.576;2023-03-14T10:45:33;0.90;;;0.50;;
23228;SDS011;11783;50.350;6.576;2023-03-14T10:48:05;0.65;;;0.50;;
23228;SDS011;11783;50.350;6.576;2023-03-14T10:50:40;1.83;;;0.70;;
23228;SDS011;11783;50.350;6.576;2023-03-14T10:56:06;0.82;;;0.50;;
23228;SDS011;11783;50.350;6.576;2023-03-14T10:58:38;0.63;;;0.50;;
23228;SDS011;11783;50.350;6.576;2023-03-14T11:01:26;1.92;;;0.60;;
23228;SDS011;11783;50.350;6.576;2023-03-14T11:07:07;1.15;;;0.70;;
23228;SDS011;11783;50.350;6.576;2023-03-14T11:09:45;1.37;;;0.77;;
23228;SDS011;11783;50.350;6.576;2023-03-14T11:12:41;1.67;;;0.95;;
23228;SDS011;11783;50.350;6.576;2023-03-14T11:23:49;1.25;;;0.60;;
23228;SDS011;11783;50.350;6.576;2023-03-14T11:28:53;0.95;;;0.50;;
23228;SDS011;11783;50.350;6.576;2023-03-14T11:31:42;0.68;;;0.47;;
23228;SDS011;11783;50.350;6.576;2023-03-14T11:36:41;1.08;;;0.50;;
23228;SDS011;11783;50.350;6.576;2023-03-14T11:41:46;1.40;;;0.40;;
23228;SDS011;11783;50.350;6.576;2023-03-14T11:46:49;1.98;;;0.47;;
23228;SDS011;11783;50.350;6.576;2023-03-14T11:51:52;0.63;;;0.50;;
23228;SDS011;11783;50.350;6.576;2023-03-14T11:57:03;1.30;;;0.70;;
23228;SDS011;11783;50.350;6.576;2023-03-14T11:59:44;2.60;;;0.80;;
23228;SDS011;11783;50.350;6.576;2023-03-14T12:10:44;2.75;;;1.40;;
23228;SDS011;11783;50.350;6.576;2023-03-14T12:13:13;5.07;;;1.80;;
23228;SDS011;11783;50.350;6.576;2023-03-14T12:15:43;4.32;;;1.80;;
23228;SDS011;11783;50.350;6.576;2023-03-14T12:18:21;3.85;;;1.90;;
23228;SDS011;11783;50.350;6.576;2023-03-14T12:20:54;4.57;;;2.28;;
23228;SDS011;11783;50.350;6.576;2023-03-14T12:23:23;4.03;;;2.50;;
23228;SDS011;11783;50.350;6.576;2023-03-14T12:28:37;4.88;;;2.85;;
23228;SDS011;11783;50.350;6.576;2023-03-14T12:46:54;5.78;;;3.53;;
23228;SDS011;11783;50.350;6.576;2023-03-14T12:49:29;5.40;;;3.47;;
23228;SDS011;11783;50.350;6.576;2023-03-14T12:51:59;6.60;;;3.65;;
23228;SDS011;11783;50.350;6.576;2023-03-14T12:59:51;7.05;;;3.88;;
23228;SDS011;11783;50.350;6.576;2023-03-14T13:02:42;5.03;;;2.85;;
23228;SDS011;11783;50.350;6.576;2023-03-14T13:05:12;7.07;;;4.07;;
23228;SDS011;11783;50.350;6.576;2023-03-14T13:10:17;5.80;;;3.50;;
23228;SDS011;11783;50.350;6.576;2023-03-14T13:12:54;8.18;;;4.10;;
23228;SDS011;11783;50.350;6.576;2023-03-14T13:17:54;5.57;;;3.20;;
23228;SDS011;11783;50.350;6.576;2023-03-14T13:20:30;7.15;;;3.65;;
23228;SDS011;11783;50.350;6.576;2023-03-14T13:22:59;7.60;;;3.40;;
23228;SDS011;11783;50.350;6.576;2023-03-14T13:25:24;5.38;;;2.90;;
23228;SDS011;11783;50.350;6.576;2023-03-14T13:27:55;6.00;;;2.70;;
23228;SDS011;11783;50.350;6.576;2023-03-14T13:32:46;5.70;;;3.50;;
23228;SDS011;11783;50.350;6.576;2023-03-14T13:35:16;6.65;;;3.17;;
23228;SDS011;11783;50.350;6.576;2023-03-14T13:37:47;5.25;;;3.00;;
23228;SDS011;11783;50.350;6.576;2023-03-14T13:40:23;5.60;;;3.90;;
23228;SDS011;11783;50.350;6.576;2023-03-14T13:42:59;4.90;;;3.35;;
23228;SDS011;11783;50.350;6.576;2023-03-14T13:45:48;5.80;;;2.65;;
23228;SDS011;11783;50.350;6.576;2023-03-14T13:48:15;4.72;;;2.60;;
23228;SDS011;11783;50.350;6.576;2023-03-14T13:50:55;5.72;;;3.05;;
23228;SDS011;11783;50.350;6.576;2023-03-14T13:53:26;4.70;;;2.72;;
23228;SDS011;11783;50.350;6.576;2023-03-14T13:55:52;4.18;;;2.20;;
23228;SDS011;11783;50.350;6.576;2023-03-14T13:58:28;4.75;;;2.85;;
23228;SDS011;11783;50.350;6.576;2023-03-14T14:00:56;4.40;;;2.50;;
23228;SDS011;11783;50.350;6.576;2023-03-14T14:03:24;3.90;;;2.45;;
23228;SDS011;11783;50.350;6.576;2023-03-14T14:05:50;4.00;;;2.38;;
23228;SDS011;11783;50.350;6.576;2023-03-14T14:08:16;4.60;;;1.90;;
23228;SDS011;11783;50.350;6.576;2023-03-14T14:10:41;4.20;;;2.20;;
23228;SDS011;11783;50.350;6.576;2023-03-14T14:13:08;3.50;;;2.17;;
23228;SDS011;11783;50.350;6.576;2023-03-14T14:15:41;5.13;;;2.00;;
23228;SDS011;11783;50.350;6.576;2023-03-14T14:18:10;3.25;;;1.98;;
23228;SDS011;11783;50.350;6.576;2023-03-14T14:20:40;3.47;;;1.80;;
23228;SDS011;11783;50.350;6.576;2023-03-14T14:23:15;3.80;;;2.00;;
23228;SDS011;11783;50.350;6.576;2023-03-14T14:25:44;3.55;;;1.80;;
23228;SDS011;11783;50.350;6.576;2023-03-14T14:33:54;4.07;;;1.88;;
23228;SDS011;11783;50.350;6.576;2023-03-14T14:36:22;4.15;;;1.75;;
23228;SDS011;11783;50.350;6.576;2023-03-14T14:38:51;2.90;;;1.60;;
23228;SDS011;11783;50.350;6.576;2023-03-14T14:41:39;2.47;;;1.48;;
23228;SDS011;11783;50.350;6.576;2023-03-14T14:44:06;2.35;;;1.40;;
23228;SDS011;11783;50.350;6.576;2023-03-14T14:46:32;3.60;;;1.70;;
23228;SDS011;11783;50.350;6.576;2023-03-14T14:49:05;2.78;;;1.50;;
23228;SDS011;11783;50.350;6.576;2023-03-14T14:51:43;2.25;;;1.35;;
23228;SDS011;11783;50.350;6.576;2023-03-14T14:54:16;2.83;;;1.70;;
23228;SDS011;11783;50.350;6.576;2023-03-14T14:56:47;3.45;;;1.42;;
23228;SDS011;11783;50.350;6.576;2023-03-14T14:59:19;2.53;;;1.38;;
23228;SDS011;11783;50.350;6.576;2023-03-14T15:01:47;2.70;;;1.60;;
23228;SDS011;11783;50.350;6.576;2023-03-14T15:04:13;3.03;;;1.73;;
23228;SDS011;11783;50.350;6.576;2023-03-14T15:06:41;3.22;;;1.73;;
23228;SDS011;11783;50.350;6.576;2023-03-14T15:09:10;3.22;;;1.63;;
23228;SDS011;11783;50.350;6.576;2023-03-14T15:11:36;2.88;;;1.45;;
23228;SDS011;11783;50.350;6.576;2023-03-14T15:14:02;2.50;;;1.52;;
23228;SDS011;11783;50.350;6.576;2023-03-14T15:16:29;3.20;;;1.77;;
23228;SDS011;11783;50.350;6.576;2023-03-14T15:18:59;2.83;;;1.52;;
23228;SDS011;11783;50.350;6.576;2023-03-14T15:21:28;4.00;;;2.00;;
23228;SDS011;11783;50.350;6.576;2023-03-14T15:23:53;3.97;;;2.22;;
23228;SDS011;11783;50.350;6.576;2023-03-14T15:26:20;5.28;;;2.80;;
23228;SDS011;11783;50.350;6.576;2023-03-14T15:28:47;4.55;;;2.00;;
23228;SDS011;11783;50.350;6.576;2023-03-14T15:31:13;5.65;;;2.05;;
23228;SDS011;11783;50.350;6.576;2023-03-14T15:33:40;3.88;;;2.30;;
23228;SDS011;11783;50.350;6.576;2023-03-14T15:36:14;3.28;;;1.80;;
23228;SDS011;11783;50.350;6.576;2023-03-14T15:39:02;3.97;;;1.50;;
23228;SDS011;11783;50.350;6.576;2023-03-14T15:41:29;2.15;;;1.20;;
23228;SDS011;11783;50.350;6.576;2023-03-14T15:43:55;1.77;;;0.90;;
23228;SDS011;11783;50.350;6.576;2023-03-14T15:46:20;1.98;;;0.70;;
23228;SDS011;11783;50.350;6.576;2023-03-14T15:48:47;3.33;;;1.40;;
23228;SDS011;11783;50.350;6.576;2023-03-14T15:51:13;4.47;;;1.10;;
23228;SDS011;11783;50.350;6.576;2023-03-14T15:53:39;6.40;;;1.17;;
23228;SDS011;11783;50.350;6.576;2023-03-14T15:56:06;6.13;;;1.33;;
23228;SDS011;11783;50.350;6.576;2023-03-14T15:58:36;4.63;;;1.10;;
23228;SDS011;11783;50.350;6.576;2023-03-14T16:01:05;5.32;;;0.95;;
23228;SDS011;11783;50.350;6.576;2023-03-14T16:03:34;9.10;;;1.48;;
23228;SDS011;11783;50.350;6.576;2023-03-14T16:05:59;6.43;;;1.30;;
23228;SDS011;11783;50.350;6.576;2023-03-14T16:08:24;7.88;;;2.65;;
23228;SDS011;11783;50.350;6.576;2023-03-14T16:10:51;9.68;;;2.10;;
23228;SDS011;11783;50.350;6.576;2023-03-14T16:13:16;6.85;;;2.25;;
23228;SDS011;11783;50.350;6.576;2023-03-14T16:15:42;12.77;;;1.95;;
23228;SDS011;11783;50.350;6.576;2023-03-14T16:18:07;9.38;;;2.20;;
23228;SDS011;11783;50.350;6.576;2023-03-14T16:20:32;11.43;;;2.38;;